| time (UTC) | temp F | wind direction | speed knots | gust knots | rain 1hr in | rain 24hr in | rain mn in | humidity % | barometer mb |
| 20260502181024 | 61 | 57 | 1.7 | 4.3 | 0.00 | 0.00 | 0.00 | 70 | 1016.5 |
| 20260502180520 | 61 | 0 | 0.9 | 3.5 | 0.00 | 0.00 | 0.00 | 68 | 1016.6 |
| 20260502170520 | 57 | 0 | 1.7 | 5.2 | 0.00 | 0.00 | 0.00 | 75 | 1016.9 |
| 20260502164022 | 57 | 125 | 0.0 | 5.2 | 0.00 | 0.00 | 0.00 | 74 | 1016.7 |
| 20260502163520 | 57 | 0 | 0.9 | 5.2 | 0.00 | 0.00 | 0.00 | 75 | 1016.7 |
| 20260502163045 | 57 | 0 | 0.0 | 3.5 | 0.00 | 0.00 | 0.00 | 75 | 1016.6 |
| 20260502162522 | 56 | 122 | 1.7 | 3.5 | 0.00 | 0.00 | 0.00 | 75 | 1016.8 |
| 20260502162024 | 56 | 126 | 0.9 | 2.6 | 0.00 | 0.00 | 0.00 | 76 | 1016.8 |
| 20260502161539 | 56 | 0 | 0.0 | 1.7 | 0.00 | 0.00 | 0.00 | 76 | 1016.9 |
| 20260502161022 | 56 | 99 | 0.0 | 2.6 | 0.00 | 0.00 | 0.00 | 75 | 1016.8 |
| 20260502160526 | 56 | 0 | 0.0 | 2.6 | 0.00 | 0.00 | 0.00 | 79 | 1016.8 |
| 20260502152021 | 52 | 0 | 0.0 | 2.6 | 0.00 | 0.00 | 0.00 | 83 | 1016.8 |
| 20260502151543 | 52 | 0 | 0.0 | 2.6 | 0.00 | 0.00 | 0.00 | 83 | 1016.8 |
| 20260502151025 | 52 | 99 | 0.0 | 2.6 | 0.00 | 0.00 | 0.00 | 83 | 1016.7 |
| 20260502150520 | 52 | 0 | 0.0 | 2.6 | 0.00 | 0.00 | 0.00 | 84 | 1016.7 |
| 20260502130519 | 50 | 0 | 0.0 | 0.0 | 0.00 | 0.00 | 0.00 | 87 | 1016.6 |
| 20260502123525 | 51 | 0 | 0.0 | 0.0 | 0.00 | 0.00 | 0.00 | 88 | 1016.8 |
| 20260502123055 | 51 | 0 | 0.0 | 0.0 | 0.00 | 0.00 | 0.00 | 87 | 1016.9 |
| 20260502122522 | 51 | 0 | 0.0 | 0.0 | 0.00 | 0.00 | 0.00 | 88 | 1016.9 |
| 20260502122022 | 51 | 0 | 0.0 | 0.0 | 0.00 | 0.00 | 0.00 | 88 | 1016.8 |
| 20260502121535 | 51 | 0 | 0.0 | 0.0 | 0.00 | 0.00 | 0.00 | 88 | 1016.8 |
| 20260502121019 | 51 | 0 | 0.0 | 0.0 | 0.00 | 0.00 | 0.00 | 88 | 1016.8 |
| 20260502120522 | 51 | 0 | 0.0 | 0.0 | 0.00 | 0.00 | 0.00 | 88 | 1016.8 |
| 20260502115520 | 51 | 0 | 0.0 | 0.0 | 0.00 | 0.00 | 0.00 | 88 | 1016.9 |
| 20260502115023 | 51 | 0 | 0.0 | 0.0 | 0.00 | 0.00 | 0.00 | 88 | 1017.0 |
| 20260502114544 | 51 | 0 | 0.0 | 0.0 | 0.00 | 0.00 | 0.00 | 88 | 1017.0 |
| 20260502114026 | 51 | 0 | 0.0 | 0.0 | 0.00 | 0.00 | 0.00 | 87 | 1017.2 |
| 20260502113518 | 51 | 0 | 0.0 | 0.0 | 0.00 | 0.00 | 0.00 | 87 | 1017.3 |
| 20260502113043 | 51 | 0 | 0.0 | 3.5 | 0.00 | 0.00 | 0.00 | 86 | 1017.5 |
| 20260502112522 | 52 | 0 | 0.0 | 3.5 | 0.00 | 0.00 | 0.00 | 86 | 1017.5 |
| 20260502112022 | 52 | 0 | 0.0 | 3.5 | 0.00 | 0.00 | 0.00 | 86 | 1017.5 |
| 20260502111541 | 52 | 0 | 0.0 | 3.5 | 0.00 | 0.00 | 0.00 | 86 | 1017.4 |
| 20260502111019 | 51 | 102 | 0.9 | 7.0 | 0.00 | 0.00 | 0.00 | 86 | 1017.3 |
| 20260502110521 | 51 | 143 | 0.9 | 7.0 | 0.00 | 0.00 | 0.00 | 87 | 1017.1 |
| 20260502110055 | 51 | 135 | 2.6 | 6.1 | 0.00 | 0.00 | 0.00 | 87 | 1017.1 |
| 20260502105523 | 51 | 123 | 1.7 | 5.2 | 0.00 | 0.00 | 0.00 | 88 | 1016.9 |
| 20260502105021 | 51 | 98 | 0.9 | 2.6 | 0.00 | 0.00 | 0.00 | 89 | 1016.9 |
| 20260502104543 | 51 | 0 | 0.0 | 0.9 | 0.00 | 0.00 | 0.00 | 87 | 1016.7 |
| 20260502104020 | 51 | 0 | 0.0 | 0.9 | 0.00 | 0.00 | 0.00 | 87 | 1016.5 |
| 20260502103521 | 51 | 0 | 0.0 | 0.0 | 0.00 | 0.00 | 0.00 | 87 | 1016.2 |
| 20260502103041 | 51 | 0 | 0.0 | 0.0 | 0.00 | 0.00 | 0.00 | 88 | 1016.2 |
| 20260502102523 | 51 | 0 | 0.0 | 0.9 | 0.00 | 0.00 | 0.00 | 88 | 1016.3 |
| 20260502102022 | 51 | 0 | 0.0 | 0.9 | 0.00 | 0.00 | 0.00 | 88 | 1016.3 |
| 20260502101601 | 51 | 0 | 0.0 | 0.0 | 0.00 | 0.00 | 0.00 | 88 | 1016.3 |
| 20260502101019 | 50 | 0 | 0.0 | 0.0 | 0.00 | 0.00 | 0.00 | 88 | 1016.3 |
| 20260502100521 | 50 | 0 | 0.0 | 0.0 | 0.00 | 0.00 | 0.00 | 88 | 1016.3 |
| 20260502091019 | 52 | 0 | 0.0 | 0.0 | 0.00 | 0.00 | 0.00 | 86 | 1016.6 |
| 20260502090527 | 52 | 0 | 0.0 | 0.9 | 0.00 | 0.00 | 0.00 | 86 | 1016.7 |
| 20260502071020 | 54 | 0 | 0.0 | 0.0 | 0.00 | 0.00 | 0.00 | 82 | 1016.7 |
| 20260502070522 | 54 | 0 | 0.0 | 0.0 | 0.00 | 0.00 | 0.00 | 82 | 1016.8 |
| 20260502070048 | 54 | 0 | 0.0 | 0.0 | 0.00 | 0.00 | 0.00 | 82 | 1016.9 |
| 20260502065520 | 55 | 0 | 0.0 | 0.0 | 0.00 | 0.00 | 0.00 | 81 | 1016.6 |
| 20260502065020 | 55 | 0 | 0.0 | 0.0 | 0.00 | 0.00 | 0.00 | 81 | 1017.0 |
| 20260502064537 | 55 | 0 | 0.0 | 0.0 | 0.00 | 0.00 | 0.00 | 81 | 1017.1 |
| 20260502064021 | 55 | 0 | 0.0 | 0.0 | 0.00 | 0.00 | 0.00 | 81 | 1017.1 |
| 20260502063521 | 55 | 0 | 0.0 | 0.0 | 0.00 | 0.00 | 0.00 | 81 | 1017.0 |
| 20260502063037 | 55 | 0 | 0.0 | 0.0 | 0.00 | 0.00 | 0.00 | 80 | 1016.9 |
| 20260502062523 | 56 | 0 | 0.0 | 0.0 | 0.00 | 0.00 | 0.00 | 79 | 1016.7 |
| 20260502062022 | 56 | 0 | 0.0 | 0.0 | 0.00 | 0.00 | 0.00 | 78 | 1016.7 |
| 20260502061540 | 56 | 0 | 0.0 | 0.0 | 0.00 | 0.00 | 0.00 | 79 | 1016.6 |
| 20260502061020 | 55 | 0 | 0.0 | 0.0 | 0.00 | 0.00 | 0.00 | 79 | 1016.6 |
| 20260502060521 | 55 | 0 | 0.0 | 0.0 | 0.00 | 0.00 | 0.00 | 80 | 1016.6 |
| 20260502060041 | 56 | 0 | 0.0 | 0.0 | 0.00 | 0.00 | 0.00 | 79 | 1016.6 |
| 20260502055528 | 56 | 0 | 0.0 | 0.0 | 0.00 | 0.00 | 0.00 | 79 | 1016.5 |
| 20260502055022 | 56 | 0 | 0.0 | 0.0 | 0.00 | 0.00 | 0.00 | 79 | 1016.5 |
| 20260502054537 | 56 | 0 | 0.0 | 0.0 | 0.00 | 0.00 | 0.00 | 78 | 1016.5 |
| 20260502054020 | 56 | 0 | 0.0 | 0.0 | 0.00 | 0.00 | 0.00 | 78 | 1016.4 |
| 20260502053523 | 57 | 0 | 0.0 | 0.0 | 0.00 | 0.00 | 0.00 | 76 | 1016.3 |
| 20260502053037 | 57 | 0 | 0.0 | 0.0 | 0.00 | 0.00 | 0.00 | 77 | 1016.3 |
| 20260502052525 | 57 | 0 | 0.0 | 0.0 | 0.00 | 0.00 | 0.00 | 76 | 1016.2 |
| 20260502052022 | 57 | 0 | 0.0 | 0.9 | 0.00 | 0.00 | 0.00 | 77 | 1016.2 |
| 20260502051542 | 57 | 0 | 0.0 | 0.9 | 0.00 | 0.00 | 0.00 | 77 | 1016.2 |
| 20260502051019 | 57 | 0 | 0.0 | 0.0 | 0.00 | 0.00 | 0.00 | 77 | 1016.2 |
| 20260502050521 | 57 | 0 | 0.0 | 0.0 | 0.00 | 0.00 | 0.00 | 76 | 1016.1 |
| 20260502050040 | 57 | 0 | 0.0 | 0.0 | 0.00 | 0.00 | 0.00 | 75 | 1016.1 |
| 20260502045520 | 57 | 0 | 0.0 | 0.0 | 0.00 | 0.00 | 0.00 | 75 | 1016.1 |
| 20260502045022 | 58 | 0 | 0.0 | 0.0 | 0.00 | 0.00 | 0.00 | 73 | 1016.1 |
| 20260502044534 | 58 | 0 | 0.0 | 0.0 | 0.00 | 0.00 | 0.00 | 73 | 1016.2 |
| 20260502044019 | 58 | 0 | 0.0 | 0.0 | 0.00 | 0.00 | 0.00 | 72 | 1016.2 |
| 20260502043520 | 58 | 0 | 0.0 | 0.0 | 0.00 | 0.00 | 0.00 | 73 | 1016.1 |
| 20260502043035 | 59 | 0 | 0.0 | 1.7 | 0.00 | 0.00 | 0.00 | 74 | 1016.1 |
| 20260502042519 | 58 | 0 | 0.0 | 1.7 | 0.00 | 0.00 | 0.00 | 73 | 1015.9 |
| 20260502042021 | 58 | 0 | 0.0 | 0.0 | 0.00 | 0.00 | 0.00 | 73 | 1015.8 |
| 20260502041543 | 59 | 0 | 0.0 | 0.0 | 0.00 | 0.00 | 0.00 | 72 | 1015.8 |
| 20260502041021 | 60 | 0 | 0.0 | 0.0 | 0.00 | 0.00 | 0.00 | 70 | 1015.7 |
| 20260502040523 | 60 | 0 | 0.0 | 0.0 | 0.00 | 0.00 | 0.00 | 69 | 1015.7 |
| 20260502040044 | 60 | 0 | 0.0 | 0.0 | 0.00 | 0.00 | 0.00 | 69 | 1015.7 |
| 20260502035518 | 61 | 0 | 0.0 | 0.0 | 0.00 | 0.00 | 0.00 | 67 | 1015.7 |
| 20260502035021 | 60 | 0 | 0.0 | 0.0 | 0.00 | 0.00 | 0.00 | 70 | 1015.6 |
| 20260502034537 | 61 | 0 | 0.0 | 0.0 | 0.00 | 0.00 | 0.00 | 71 | 1015.5 |
| 20260502034022 | 61 | 0 | 0.0 | 0.0 | 0.00 | 0.00 | 0.00 | 69 | 1015.4 |
| 20260502033521 | 62 | 0 | 0.0 | 0.9 | 0.00 | 0.00 | 0.00 | 68 | 1015.3 |
| 20260502033050 | 62 | 0 | 0.0 | 0.9 | 0.00 | 0.00 | 0.00 | 66 | 1015.0 |
| 20260502032521 | 62 | 0 | 0.0 | 0.9 | 0.00 | 0.00 | 0.00 | 66 | 1015.1 |
| 20260502032018 | 62 | 0 | 0.0 | 0.9 | 0.00 | 0.00 | 0.00 | 67 | 1015.2 |
| 20260502031538 | 62 | 0 | 0.0 | 0.0 | 0.00 | 0.00 | 0.00 | 65 | 1015.4 |
| 20260502031019 | 63 | 0 | 0.0 | 0.0 | 0.00 | 0.00 | 0.00 | 65 | 1015.2 |
| 20260502030523 | 63 | 0 | 0.0 | 0.0 | 0.00 | 0.00 | 0.00 | 63 | 1015.1 |
| 20260502030053 | 63 | 0 | 0.0 | 0.9 | 0.00 | 0.00 | 0.00 | 63 | 1014.9 |
| 20260502025522 | 64 | 0 | 0.0 | 0.9 | 0.00 | 0.00 | 0.00 | 63 | 1014.8 |
| 20260502025021 | 64 | 0 | 0.0 | 0.9 | 0.00 | 0.00 | 0.00 | 62 | 1014.8 |
| 20260502024543 | 64 | 0 | 0.0 | 0.9 | 0.00 | 0.00 | 0.00 | 61 | 1014.7 |
| 20260502024022 | 64 | 0 | 0.0 | 0.9 | 0.00 | 0.00 | 0.00 | 62 | 1014.7 |
| 20260502023519 | 65 | 0 | 0.0 | 1.7 | 0.00 | 0.00 | 0.00 | 61 | 1014.7 |
| 20260502023059 | 65 | 0 | 0.0 | 1.7 | 0.00 | 0.00 | 0.00 | 60 | 1014.7 |
| 20260502022522 | 66 | 0 | 0.0 | 1.7 | 0.00 | 0.00 | 0.00 | 59 | 1014.6 |
| 20260502022021 | 66 | 96 | 0.0 | 1.7 | 0.00 | 0.00 | 0.00 | 58 | 1014.6 |
| 20260502021541 | 66 | 0 | 0.0 | 1.7 | 0.00 | 0.00 | 0.00 | 57 | 1014.7 |
| 20260502021020 | 66 | 0 | 0.0 | 0.9 | 0.00 | 0.00 | 0.00 | 59 | 1014.7 |
| 20260502020518 | 66 | 0 | 0.0 | 1.7 | 0.00 | 0.00 | 0.00 | 60 | 1014.7 |
| 20260502020045 | 67 | 0 | 0.0 | 1.7 | 0.00 | 0.00 | 0.00 | 57 | 1014.6 |
| 20260502015521 | 67 | 0 | 0.0 | 0.9 | 0.00 | 0.00 | 0.00 | 56 | 1014.6 |
| 20260502015023 | 67 | 0 | 0.0 | 0.9 | 0.00 | 0.00 | 0.00 | 55 | 1014.6 |
| 20260502014541 | 68 | 0 | 0.0 | 1.7 | 0.00 | 0.00 | 0.00 | 56 | 1014.6 |
| 20260502014018 | 68 | 0 | 0.0 | 1.7 | 0.00 | 0.00 | 0.00 | 57 | 1014.6 |
| 20260502013521 | 68 | 201 | 0.0 | 0.9 | 0.00 | 0.00 | 0.00 | 57 | 1014.6 |
| 20260502013040 | 68 | 0 | 0.0 | 0.9 | 0.00 | 0.00 | 0.00 | 58 | 1014.6 |
| 20260502012527 | 68 | 0 | 0.0 | 0.0 | 0.00 | 0.00 | 0.00 | 55 | 1014.6 |
| 20260502012025 | 69 | 0 | 0.0 | 1.7 | 0.00 | 0.00 | 0.00 | 56 | 1014.5 |
| 20260502011540 | 69 | 0 | 0.0 | 1.7 | 0.00 | 0.00 | 0.00 | 56 | 1014.5 |
| 20260502011021 | 69 | 0 | 0.0 | 2.6 | 0.00 | 0.00 | 0.00 | 55 | 1014.5 |
| 20260502010526 | 70 | 244 | 0.0 | 2.6 | 0.00 | 0.00 | 0.00 | 55 | 1014.5 |
| 20260502010034 | 70 | 0 | 0.0 | 1.7 | 0.00 | 0.00 | 0.00 | 54 | 1014.5 |
| 20260502005520 | 70 | 283 | 0.0 | 2.6 | 0.00 | 0.00 | 0.00 | 52 | 1014.4 |
| 20260502005019 | 70 | 0 | 0.0 | 2.6 | 0.00 | 0.00 | 0.00 | 54 | 1014.5 |
| 20260502004545 | 70 | 0 | 0.0 | 2.6 | 0.00 | 0.00 | 0.00 | 53 | 1014.4 |
| 20260502004024 | 70 | 0 | 0.0 | 2.6 | 0.00 | 0.00 | 0.00 | 52 | 1014.3 |
| 20260502003521 | 70 | 0 | 0.0 | 2.6 | 0.00 | 0.00 | 0.00 | 52 | 1014.2 |
| 20260502003041 | 71 | 114 | 0.0 | 2.6 | 0.00 | 0.00 | 0.00 | 50 | 1014.3 |
| 20260502002521 | 71 | 0 | 0.0 | 1.7 | 0.00 | 0.00 | 0.00 | 50 | 1014.3 |
| 20260502002019 | 72 | 0 | 0.0 | 2.6 | 0.00 | 0.00 | 0.00 | 50 | 1014.3 |
| 20260502001538 | 72 | 0 | 0.0 | 2.6 | 0.00 | 0.00 | 0.00 | 50 | 1014.3 |
| 20260502001022 | 72 | 282 | 0.9 | 2.6 | 0.00 | 0.00 | 0.00 | 51 | 1014.2 |
| 20260502000521 | 71 | 107 | 0.0 | 1.7 | 0.00 | 0.00 | 0.00 | 49 | 1014.3 |
| 20260502000035 | 72 | 0 | 0.0 | 4.3 | 0.00 | 0.00 | 0.00 | 51 | 1014.3 |
| 20260501235520 | 72 | 0 | 0.0 | 4.3 | 0.00 | 0.00 | 0.00 | 49 | 1014.3 |
| 20260501235019 | 72 | 121 | 0.0 | 2.6 | 0.00 | 0.00 | 0.00 | 49 | 1014.2 |
| 20260501234541 | 72 | 0 | 0.0 | 5.2 | 0.00 | 0.00 | 0.00 | 48 | 1014.2 |
| 20260501234020 | 72 | 221 | 0.0 | 6.1 | 0.00 | 0.00 | 0.00 | 48 | 1014.3 |
| 20260501233519 | 72 | 85 | 0.9 | 6.1 | 0.00 | 0.00 | 0.00 | 49 | 1014.3 |
| 20260501233039 | 73 | 301 | 0.0 | 6.1 | 0.00 | 0.00 | 0.00 | 49 | 1014.4 |
| 20260501232525 | 73 | 129 | 0.9 | 6.1 | 0.00 | 0.00 | 0.00 | 47 | 1014.4 |
| 20260501232021 | 73 | 284 | 1.7 | 6.1 | 0.00 | 0.00 | 0.00 | 47 | 1014.5 |
| 20260501231535 | 74 | 313 | 0.0 | 6.1 | 0.00 | 0.00 | 0.00 | 47 | 1014.4 |
| 20260501231021 | 73 | 0 | 1.7 | 6.1 | 0.00 | 0.00 | 0.00 | 47 | 1014.5 |
| 20260501230522 | 75 | 93 | 0.0 | 2.6 | 0.00 | 0.00 | 0.00 | 44 | 1014.4 |
| 20260501230037 | 75 | 219 | 0.0 | 2.6 | 0.00 | 0.00 | 0.00 | 45 | 1014.5 |
| 20260501225525 | 75 | 253 | 0.9 | 2.6 | 0.00 | 0.00 | 0.00 | 44 | 1014.6 |
| 20260501225023 | 75 | 0 | 0.0 | 2.6 | 0.00 | 0.00 | 0.00 | 43 | 1014.7 |
| 20260501224549 | 75 | 246 | 0.0 | 3.5 | 0.00 | 0.00 | 0.00 | 45 | 1014.8 |
| 20260501224025 | 74 | 177 | 0.0 | 3.5 | 0.00 | 0.00 | 0.00 | 45 | 1014.9 |
| 20260501223523 | 75 | 159 | 1.7 | 3.5 | 0.00 | 0.00 | 0.00 | 42 | 1015.0 |
| 20260501223051 | 75 | 252 | 0.9 | 3.5 | 0.00 | 0.00 | 0.00 | 42 | 1015.0 |
| 20260501222525 | 75 | 212 | 0.9 | 2.6 | 0.00 | 0.00 | 0.00 | 42 | 1014.9 |
| 20260501222021 | 75 | 278 | 0.0 | 2.6 | 0.00 | 0.00 | 0.00 | 40 | 1015.0 |
| 20260501221538 | 76 | 53 | 0.9 | 3.5 | 0.00 | 0.00 | 0.00 | 39 | 1015.0 |
| 20260501221023 | 75 | 310 | 0.9 | 3.5 | 0.00 | 0.00 | 0.00 | 40 | 1014.9 |
| 20260501220526 | 76 | 0 | 0.9 | 3.5 | 0.00 | 0.00 | 0.00 | 38 | 1014.9 |
| 20260501220038 | 75 | 0 | 0.9 | 6.1 | 0.00 | 0.00 | 0.00 | 41 | 1014.9 |
| 20260501215522 | 76 | 171 | 0.0 | 6.1 | 0.00 | 0.00 | 0.00 | 42 | 1014.8 |
| 20260501215022 | 75 | 184 | 0.9 | 3.5 | 0.00 | 0.00 | 0.00 | 42 | 1014.9 |
| 20260501214535 | 76 | 309 | 0.0 | 3.5 | 0.00 | 0.00 | 0.00 | 41 | 1014.9 |
| 20260501214021 | 75 | 0 | 0.0 | 3.5 | 0.00 | 0.00 | 0.00 | 40 | 1015.0 |
| 20260501213521 | 74 | 213 | 0.9 | 4.3 | 0.00 | 0.00 | 0.00 | 43 | 1015.0 |
| 20260501213034 | 75 | 0 | 0.9 | 4.3 | 0.00 | 0.00 | 0.00 | 41 | 1015.0 |
| 20260501212521 | 73 | 243 | 0.0 | 3.5 | 0.00 | 0.00 | 0.00 | 42 | 1015.1 |
| 20260501212021 | 73 | 306 | 0.0 | 3.5 | 0.00 | 0.00 | 0.00 | 48 | 1015.1 |
| 20260501211542 | 73 | 0 | 0.9 | 3.5 | 0.00 | 0.00 | 0.00 | 44 | 1015.1 |
| 20260501211020 | 73 | 324 | 0.0 | 4.3 | 0.00 | 0.00 | 0.00 | 44 | 1015.2 |
| 20260501210520 | 72 | 0 | 0.9 | 4.3 | 0.00 | 0.00 | 0.00 | 44 | 1015.1 |
| 20260501210039 | 72 | 0 | 0.9 | 3.5 | 0.00 | 0.00 | 0.00 | 42 | 1015.1 |
| 20260501205525 | 73 | 0 | 0.9 | 3.5 | 0.00 | 0.00 | 0.00 | 40 | 1015.1 |
| 20260501205021 | 73 | 87 | 0.9 | 6.1 | 0.00 | 0.00 | 0.00 | 42 | 1015.1 |
| 20260501204545 | 72 | 0 | 0.0 | 6.1 | 0.00 | 0.00 | 0.00 | 48 | 1015.2 |
| 20260501204020 | 71 | 67 | 1.7 | 5.2 | 0.00 | 0.00 | 0.00 | 47 | 1015.2 |
| 20260501203520 | 71 | 115 | 1.7 | 5.2 | 0.00 | 0.00 | 0.00 | 47 | 1015.2 |
| 20260501203050 | 72 | 139 | 0.9 | 5.2 | 0.00 | 0.00 | 0.00 | 46 | 1015.4 |
| 20260501202521 | 72 | 0 | 0.9 | 5.2 | 0.00 | 0.00 | 0.00 | 50 | 1015.3 |
| 20260501202022 | 73 | 74 | 0.0 | 3.5 | 0.00 | 0.00 | 0.00 | 49 | 1015.4 |
| 20260501201548 | 72 | 106 | 0.9 | 3.5 | 0.00 | 0.00 | 0.00 | 46 | 1015.3 |
| 20260501201019 | 71 | 289 | 0.9 | 6.1 | 0.00 | 0.00 | 0.00 | 48 | 1015.3 |
| 20260501200525 | 71 | 99 | 0.0 | 6.1 | 0.00 | 0.00 | 0.00 | 48 | 1015.3 |
| 20260501200040 | 71 | 122 | 0.0 | 4.3 | 0.00 | 0.00 | 0.00 | 50 | 1015.2 |
| 20260501195521 | 70 | 85 | 0.9 | 5.2 | 0.00 | 0.00 | 0.00 | 48 | 1015.3 |
| 20260501195021 | 69 | 0 | 0.9 | 5.2 | 0.00 | 0.00 | 0.00 | 51 | 1015.4 |
| 20260501194538 | 69 | 74 | 0.9 | 5.2 | 0.00 | 0.00 | 0.00 | 51 | 1015.4 |
| 20260501194018 | 69 | 85 | 0.0 | 3.5 | 0.00 | 0.00 | 0.00 | 51 | 1015.4 |
| 20260501193520 | 69 | 111 | 0.9 | 3.5 | 0.00 | 0.00 | 0.00 | 48 | 1015.3 |
| 20260501193039 | 70 | 0 | 0.0 | 5.2 | 0.00 | 0.00 | 0.00 | 49 | 1015.4 |
| 20260501192522 | 69 | 0 | 0.0 | 5.2 | 0.00 | 0.00 | 0.00 | 50 | 1015.4 |
| 20260501192020 | 70 | 43 | 0.9 | 5.2 | 0.00 | 0.00 | 0.00 | 49 | 1015.5 |
| 20260501191542 | 69 | 0 | 0.0 | 4.3 | 0.00 | 0.00 | 0.00 | 48 | 1015.4 |
| 20260501191020 | 69 | 43 | 0.9 | 4.3 | 0.00 | 0.00 | 0.00 | 45 | 1015.5 |
| 20260501190522 | 69 | 66 | 0.9 | 4.3 | 0.00 | 0.00 | 0.00 | 47 | 1015.6 |
| 20260501190041 | 69 | 255 | 0.0 | 1.7 | 0.00 | 0.00 | 0.00 | 47 | 1015.7 |
| 20260501185521 | 68 | 0 | 0.0 | 1.7 | 0.00 | 0.00 | 0.00 | 47 | 1015.8 |
| 20260501185020 | 68 | 0 | 0.0 | 1.7 | 0.00 | 0.00 | 0.00 | 50 | 1015.9 |
| 20260501184559 | 67 | 323 | 0.0 | 4.3 | 0.00 | 0.00 | 0.00 | 53 | 1015.9 |
| 20260501184022 | 67 | 95 | 1.7 | 5.2 | 0.00 | 0.00 | 0.00 | 52 | 1016.0 |
| 20260501183523 | 67 | 298 | 0.9 | 5.2 | 0.00 | 0.00 | 0.00 | 56 | 1016.0 |
| 20260501183043 | 66 | 104 | 1.7 | 5.2 | 0.00 | 0.00 | 0.00 | 54 | 1016.1 |
| 20260501182519 | 67 | 125 | 0.0 | 3.5 | 0.00 | 0.00 | 0.00 | 55 | 1016.1 |
| 20260501182020 | 66 | 0 | 0.0 | 1.7 | 0.00 | 0.00 | 0.00 | 55 | 1016.2 |
| 20260501181540 | 66 | 0 | 0.0 | 5.2 | 0.00 | 0.00 | 0.00 | 54 | 1016.1 |